createdAt,value
2023-01-04T00:01:42.841Z,100991.44
2023-01-04T00:04:12.012Z,100983.56
2023-01-04T00:06:40.729Z,100989.53
2023-01-04T00:09:09.598Z,100993.78
2023-01-04T00:11:39.857Z,100990.00
2023-01-04T00:14:08.732Z,100990.00
2023-01-04T00:16:37.479Z,100987.22
2023-01-04T00:19:06.435Z,100980.31
2023-01-04T00:21:35.107Z,100983.34
2023-01-04T00:24:03.850Z,100978.59
2023-01-04T00:26:36.214Z,100987.97
2023-01-04T00:29:08.370Z,100982.09
2023-01-04T00:31:37.224Z,100975.94
2023-01-04T00:34:07.401Z,100982.69
2023-01-04T00:36:37.649Z,100990.41
2023-01-04T00:39:10.297Z,100986.59
2023-01-04T00:44:32.611Z,100989.94
2023-01-04T00:47:03.314Z,100992.03
2023-01-04T00:49:32.838Z,100992.72
2023-01-04T00:52:01.844Z,100996.88
2023-01-04T00:54:30.655Z,100998.63
2023-01-04T00:56:59.595Z,101001.78
2023-01-04T00:59:29.093Z,101001.59
2023-01-04T01:01:59.420Z,101005.50
2023-01-04T01:04:28.120Z,101005.25
2023-01-04T01:06:56.931Z,101005.25
2023-01-04T01:09:25.692Z,101003.16
2023-01-04T01:11:55.308Z,101006.44
2023-01-04T01:14:26.791Z,100996.22
2023-01-04T01:16:58.033Z,101003.75
2023-01-04T01:19:30.233Z,101007.84
2023-01-04T01:21:59.637Z,101009.22
2023-01-04T01:24:29.363Z,101007.31
2023-01-04T01:26:58.483Z,101016.31
2023-01-04T01:29:27.369Z,101003.69
2023-01-04T01:31:56.254Z,101019.38
2023-01-04T01:34:25.024Z,101002.97
2023-01-04T01:36:55.285Z,101002.03
2023-01-04T01:39:24.183Z,101004.88
2023-01-04T01:41:52.955Z,100998.31
2023-01-04T01:44:50.461Z,101003.06
2023-01-04T01:47:22.410Z,101006.78
2023-01-04T01:49:55.271Z,101000.56
2023-01-04T01:52:31.630Z,100989.94
2023-01-04T01:55:04.497Z,100994.72
2023-01-04T01:57:37.881Z,100993.59
2023-01-04T02:00:12.435Z,100997.41
2023-01-04T02:02:53.816Z,101000.69
2023-01-04T02:05:23.309Z,100996.63
2023-01-04T02:07:54.532Z,100994.25
2023-01-04T02:10:24.368Z,100994.63
2023-01-04T02:12:54.009Z,100996.88
2023-01-04T02:15:29.107Z,101003.63
2023-01-04T02:18:06.028Z,101000.84
2023-01-04T02:20:44.881Z,100991.59
2023-01-04T02:23:41.052Z,100986.44
2023-01-04T02:26:37.681Z,100992.09
2023-01-04T02:29:31.101Z,100981.94
2023-01-04T02:32:05.638Z,100983.47
2023-01-04T02:34:44.811Z,100983.31
2023-01-04T02:37:21.052Z,100987.97
2023-01-04T02:39:58.803Z,100995.44
2023-01-04T02:42:48.104Z,100993.00
2023-01-04T02:45:21.506Z,100990.06
2023-01-04T02:48:00.716Z,100984.28
2023-01-04T02:50:32.305Z,100980.53
2023-01-04T02:53:04.486Z,100979.81
2023-01-04T02:55:48.252Z,100979.25
2023-01-04T02:58:33.752Z,100974.22
2023-01-04T03:01:21.589Z,100973.84
2023-01-04T03:04:23.017Z,100976.69
2023-01-04T03:06:59.780Z,100980.84
2023-01-04T03:09:33.398Z,100981.53
2023-01-04T03:12:16.462Z,100980.84
2023-01-04T03:14:50.286Z,100980.16
2023-01-04T03:17:22.946Z,100979.47
2023-01-04T03:19:57.970Z,100971.69
2023-01-04T03:22:44.140Z,100968.03
2023-01-04T03:25:29.389Z,100968.34
2023-01-04T03:28:09.614Z,100969.34
2023-01-04T03:30:57.432Z,100974.00
2023-01-04T03:33:36.047Z,100979.19
2023-01-04T03:36:18.912Z,100978.91
2023-01-04T03:39:06.162Z,100974.16
2023-01-04T03:41:54.804Z,100982.78
2023-01-04T03:44:41.473Z,100971.25
2023-01-04T03:47:24.510Z,100972.66
2023-01-04T03:49:58.282Z,100969.34
2023-01-04T03:52:32.910Z,100974.38
2023-01-04T03:55:03.835Z,100975.72
2023-01-04T03:57:33.922Z,100962.69
2023-01-04T04:00:07.224Z,100967.44
2023-01-04T04:02:37.325Z,100968.25
2023-01-04T04:05:17.457Z,100927.16
2023-01-04T04:07:57.261Z,100971.50
2023-01-04T04:10:26.076Z,100969.59
2023-01-04T04:12:54.806Z,100972.72
2023-01-04T04:15:23.611Z,100970.47
2023-01-04T04:17:52.335Z,100980.19
2023-01-04T04:20:21.196Z,100981.75
2023-01-04T04:22:51.380Z,100978.09
2023-01-04T04:25:20.163Z,100981.56
2023-01-04T04:27:48.867Z,100979.84
2023-01-04T04:30:17.642Z,100977.41
2023-01-04T04:32:46.579Z,100970.75
2023-01-04T04:35:15.508Z,100971.63
2023-01-04T04:37:44.193Z,100975.56
2023-01-04T04:40:40.862Z,100970.53
2023-01-04T04:43:09.476Z,100974.22
2023-01-04T04:45:38.270Z,100976.34
2023-01-04T04:48:07.202Z,100974.06
2023-01-04T04:50:36.374Z,100983.72
2023-01-04T04:53:05.174Z,100978.50
2023-01-04T04:55:35.291Z,100987.00
2023-01-04T04:58:04.918Z,100986.34
2023-01-04T05:00:33.587Z,100982.75
2023-01-04T05:03:03.504Z,100974.81
2023-01-04T05:05:32.760Z,100966.75
2023-01-04T05:08:01.759Z,100956.50
2023-01-04T05:10:30.415Z,100968.09
2023-01-04T05:13:02.554Z,100962.13
2023-01-04T05:15:35.197Z,100957.50
2023-01-04T05:18:05.092Z,100964.44
2023-01-04T05:20:34.463Z,100961.25
2023-01-04T05:23:03.285Z,100968.69
2023-01-04T05:25:32.520Z,100967.13
2023-01-04T05:28:03.872Z,100972.53
2023-01-04T05:30:42.411Z,100966.25
2023-01-04T05:33:11.320Z,100970.81
2023-01-04T05:35:40.132Z,100971.84
2023-01-04T05:38:08.891Z,100974.66
2023-01-04T05:40:37.615Z,100969.66
2023-01-04T05:43:07.921Z,100959.44
2023-01-04T05:45:36.926Z,100952.78
2023-01-04T05:48:06.234Z,100954.41
2023-01-04T05:50:35.148Z,100964.44
2023-01-04T05:53:06.927Z,100962.91
2023-01-04T05:55:36.034Z,100955.84
2023-01-04T05:58:04.833Z,100944.94
2023-01-04T06:00:35.133Z,100951.16
2023-01-04T06:03:04.133Z,100948.22
2023-01-04T06:05:32.933Z,100943.41
2023-01-04T06:08:01.717Z,100948.63
2023-01-04T06:10:30.337Z,100953.84
2023-01-04T06:12:59.122Z,100948.63
2023-01-04T06:15:27.816Z,100943.59
2023-01-04T06:17:58.055Z,100943.41
2023-01-04T06:20:27.172Z,100946.50
2023-01-04T06:22:55.845Z,100941.28
2023-01-04T06:25:24.601Z,100936.28
2023-01-04T06:27:53.214Z,100945.25
2023-01-04T06:30:22.464Z,100951.69
2023-01-04T06:32:51.103Z,100948.97
2023-01-04T06:35:21.347Z,100953.81
2023-01-04T06:37:50.122Z,100954.88
2023-01-04T06:40:19.076Z,100964.44
2023-01-04T06:42:47.900Z,100964.22
2023-01-04T06:45:17.522Z,100962.09
2023-01-04T06:47:48.289Z,100951.47
2023-01-04T06:50:17.350Z,100951.47
2023-01-04T06:52:47.520Z,100942.03
2023-01-04T06:55:16.559Z,100940.03
2023-01-04T06:57:45.328Z,100942.63
2023-01-04T07:00:15.494Z,100945.72
2023-01-04T07:03:14.488Z,100939.16
2023-01-04T07:05:33.099Z,100937.91
2023-01-04T07:08:08.003Z,100946.88
2023-01-04T07:10:37.883Z,100938.78
2023-01-04T07:13:07.295Z,100941.31
2023-01-04T07:15:37.976Z,100945.94
2023-01-04T07:18:09.027Z,100947.19
2023-01-04T07:20:38.152Z,100943.19
2023-01-04T07:23:09.775Z,100952.25
2023-01-04T07:25:38.628Z,100953.34
2023-01-04T07:28:07.821Z,100951.13
2023-01-04T07:30:36.705Z,100949.03
2023-01-04T07:33:06.145Z,100955.81
2023-01-04T07:35:34.830Z,100957.09
2023-01-04T07:38:04.334Z,100959.59
2023-01-04T07:40:34.445Z,100965.31
2023-01-04T07:43:03.249Z,100967.13
2023-01-04T07:45:31.956Z,100967.19
2023-01-04T07:48:00.760Z,100968.06
2023-01-04T07:50:29.386Z,100961.31
2023-01-04T07:52:58.191Z,100967.06
2023-01-04T07:55:26.935Z,100966.94
2023-01-04T07:57:57.250Z,100960.38
2023-01-04T08:00:26.437Z,100957.81
2023-01-04T08:02:55.290Z,100959.34
2023-01-04T08:05:25.377Z,100959.06
2023-01-04T08:07:55.923Z,100974.56
2023-01-04T08:10:24.731Z,100978.19
2023-01-04T08:12:53.451Z,100970.00
2023-01-04T08:15:23.678Z,100964.56
2023-01-04T08:17:52.478Z,100959.94
2023-01-04T08:20:21.335Z,100956.72
2023-01-04T08:22:50.207Z,100949.56
2023-01-04T08:25:19.027Z,100947.59
2023-01-04T08:27:47.837Z,100952.78
2023-01-04T08:30:16.614Z,100952.41
2023-01-04T08:32:47.299Z,100957.75
2023-01-04T08:35:16.073Z,100953.03
2023-01-04T08:37:44.776Z,100949.69
2023-01-04T08:40:14.027Z,100956.81
2023-01-04T08:42:42.766Z,100946.72
2023-01-04T08:45:12.293Z,100943.56
2023-01-04T08:47:41.049Z,100953.47
2023-01-04T08:50:11.517Z,100950.88
2023-01-04T08:52:40.358Z,100954.41
2023-01-04T08:55:13.379Z,100959.13
2023-01-04T08:57:43.806Z,100959.56
2023-01-04T09:00:13.438Z,100958.31
2023-01-04T09:02:42.388Z,100955.44
2023-01-04T09:05:22.317Z,100955.72
2023-01-04T09:07:52.257Z,100952.56
2023-01-04T09:10:21.139Z,100952.19
2023-01-04T09:12:49.882Z,100940.81
2023-01-04T09:15:19.381Z,100933.81
2023-01-04T09:18:20.509Z,100928.34
2023-01-04T09:20:39.723Z,100919.81
2023-01-04T09:23:08.680Z,100914.75
2023-01-04T09:25:41.335Z,100905.16
2023-01-04T09:28:10.344Z,100918.75
2023-01-04T09:30:39.075Z,100915.38
2023-01-04T09:33:07.896Z,100921.44
2023-01-04T09:35:38.154Z,100917.97
2023-01-04T09:38:06.979Z,100914.38
2023-01-04T09:40:46.140Z,100895.25
2023-01-04T09:43:22.349Z,100901.44
2023-01-04T09:45:55.747Z,100896.88
2023-01-04T09:48:28.644Z,100892.84
2023-01-04T09:51:03.514Z,100890.84
2023-01-04T09:53:36.873Z,100894.91
2023-01-04T09:56:12.161Z,100892.19
2023-01-04T09:58:43.063Z,100880.03
2023-01-04T10:01:17.032Z,100866.03
2023-01-04T10:03:54.873Z,100875.13
2023-01-04T10:06:25.484Z,100870.22
2023-01-04T10:08:58.718Z,100870.09
2023-01-04T10:11:39.740Z,100877.25
2023-01-04T10:14:32.085Z,100872.41
2023-01-04T10:17:44.603Z,100862.88
2023-01-04T10:23:36.396Z,100860.09
2023-01-04T10:26:13.577Z,100851.28
2023-01-04T10:29:05.513Z,100852.28
2023-01-04T10:31:41.876Z,100850.72
2023-01-04T10:34:23.008Z,100840.75
2023-01-04T10:36:55.771Z,100837.50
2023-01-04T10:39:32.864Z,100838.50
2023-01-04T10:42:11.825Z,100844.19
2023-01-04T10:44:51.488Z,100824.91
2023-01-04T10:47:25.049Z,100822.56
2023-01-04T10:49:57.360Z,100821.91
2023-01-04T10:52:32.737Z,100806.03
2023-01-04T10:55:06.753Z,100808.63
2023-01-04T10:57:42.418Z,100801.16
2023-01-04T11:00:17.691Z,100797.94
2023-01-04T11:02:52.004Z,100800.53
2023-01-04T11:05:26.269Z,100800.75
2023-01-04T11:08:01.803Z,100796.06
2023-01-04T11:10:38.438Z,100799.19
2023-01-04T11:13:08.106Z,100798.03
2023-01-04T11:15:37.053Z,100788.66
2023-01-04T11:18:09.476Z,100777.84
2023-01-04T11:20:38.819Z,100764.25
2023-01-04T11:23:14.262Z,100768.25
2023-01-04T11:25:55.504Z,100762.38
2023-01-04T11:28:27.452Z,100752.44
2023-01-04T11:31:06.994Z,100764.63
2023-01-04T11:33:53.627Z,100751.28
2023-01-04T11:36:34.418Z,100749.63
2023-01-04T11:39:03.660Z,100750.53
2023-01-04T11:41:33.777Z,100747.13
2023-01-04T11:44:04.066Z,100729.44
2023-01-04T11:46:34.185Z,100744.66
2023-01-04T11:49:03.442Z,100743.81
2023-01-04T11:51:41.426Z,100732.91
2023-01-04T11:54:28.569Z,100726.94
2023-01-04T11:57:11.828Z,100702.00
2023-01-04T11:59:41.163Z,100708.78
2023-01-04T12:02:58.582Z,100702.16
2023-01-04T12:05:28.727Z,100705.88
2023-01-04T12:07:58.808Z,100699.41
2023-01-04T12:10:29.674Z,100692.59
2023-01-04T12:13:03.432Z,100681.66
2023-01-04T12:15:49.608Z,100663.38
2023-01-04T12:18:24.404Z,100673.72
2023-01-04T12:20:53.686Z,100681.13
2023-01-04T12:23:22.516Z,100670.22
2023-01-04T12:25:53.207Z,100667.22
2023-01-04T12:28:35.439Z,100664.41
2023-01-04T12:31:26.415Z,100665.47
2023-01-04T12:33:56.703Z,100668.66
2023-01-04T12:36:51.247Z,100647.06
2023-01-04T12:39:43.005Z,100636.13
2023-01-04T12:42:25.565Z,100630.06
2023-01-04T12:45:17.061Z,100620.28
2023-01-04T12:47:56.928Z,100614.25
2023-01-04T12:50:29.476Z,100613.03
2023-01-04T12:55:57.545Z,100600.63
2023-01-04T12:59:24.684Z,100606.03
2023-01-04T13:02:13.320Z,100606.31
2023-01-04T13:04:43.812Z,100592.13
2023-01-04T13:07:18.748Z,100589.91
2023-01-04T13:09:55.093Z,100582.53
2023-01-04T13:12:45.628Z,100585.91
2023-01-04T13:15:22.861Z,100565.28
2023-01-04T13:17:53.816Z,100577.03
2023-01-04T13:20:27.183Z,100573.44
2023-01-04T13:22:59.795Z,100563.28
2023-01-04T13:25:28.750Z,100562.91
2023-01-04T13:27:59.399Z,100558.97
2023-01-04T13:30:37.103Z,100560.63
2023-01-04T13:33:27.797Z,100559.69
2023-01-04T13:36:13.158Z,100551.78
2023-01-04T13:38:42.444Z,100551.63
2023-01-04T13:41:22.522Z,100554.88
2023-01-04T13:44:04.169Z,100548.69
2023-01-04T13:46:33.470Z,100540.97
2023-01-04T13:49:03.751Z,100547.44
2023-01-04T13:51:38.229Z,100549.78
2023-01-04T13:54:18.639Z,100545.19
2023-01-04T13:56:55.027Z,100541.66
2023-01-04T13:59:24.719Z,100538.03
2023-01-04T14:01:53.812Z,100542.19
2023-01-04T14:04:28.053Z,100533.59
2023-01-04T14:07:01.287Z,100536.13
2023-01-04T14:09:32.903Z,100536.13
2023-01-04T14:12:10.861Z,100535.28
2023-01-04T14:14:49.337Z,100530.16
2023-01-04T14:17:22.659Z,100527.44
2023-01-04T14:19:55.809Z,100528.16
2023-01-04T14:22:53.699Z,100522.19
2023-01-04T14:25:48.891Z,100517.75
2023-01-04T14:28:41.665Z,100516.00
2023-01-04T14:31:31.588Z,100510.13
2023-01-04T14:34:00.842Z,100518.50
2023-01-04T14:36:32.768Z,100506.63
2023-01-04T14:39:13.239Z,100509.97
2023-01-04T14:41:44.765Z,100512.56
2023-01-04T14:44:16.883Z,100499.91
2023-01-04T14:46:47.622Z,100505.00
2023-01-04T14:49:17.447Z,100484.59
2023-01-04T14:51:49.508Z,100488.88
2023-01-04T14:54:25.012Z,100489.69
2023-01-04T14:56:54.500Z,100493.06
2023-01-04T14:59:24.565Z,100487.09
2023-01-04T15:01:54.034Z,100482.81
2023-01-04T15:04:23.596Z,100486.13
2023-01-04T15:06:55.033Z,100486.00
2023-01-04T15:09:25.680Z,100484.34
2023-01-04T15:11:54.349Z,100470.88
2023-01-04T15:14:23.421Z,100467.44
2023-01-04T15:16:52.203Z,100476.81
2023-01-04T15:19:21.010Z,100478.47
2023-01-04T15:21:49.937Z,100469.16
2023-01-04T15:24:18.758Z,100463.06
2023-01-04T15:26:49.298Z,100463.06
2023-01-04T15:29:17.985Z,100461.38
2023-01-04T15:31:46.831Z,100459.63
2023-01-04T15:34:15.696Z,100455.41
2023-01-04T15:36:44.437Z,100458.84
2023-01-04T15:39:14.212Z,100450.41
2023-01-04T15:41:53.380Z,100438.47
2023-01-04T15:44:23.593Z,100439.38
2023-01-04T15:46:54.160Z,100440.22
2023-01-04T15:49:23.059Z,100442.75
2023-01-04T15:51:51.815Z,100447.84
2023-01-04T15:54:22.117Z,100439.25
2023-01-04T15:56:50.951Z,100445.22
2023-01-04T15:59:20.003Z,100445.28
2023-01-04T16:01:50.291Z,100435.94
2023-01-04T16:04:19.193Z,100430.84
2023-01-04T16:06:47.954Z,100435.84
2023-01-04T16:09:17.262Z,100431.63
2023-01-04T16:11:59.992Z,100432.41
2023-01-04T16:14:28.732Z,100430.63
2023-01-04T16:16:58.917Z,100426.25
2023-01-04T16:19:28.074Z,100428.72
2023-01-04T16:21:56.852Z,100436.31
2023-01-04T16:27:17.191Z,100433.59
2023-01-04T16:29:45.959Z,100430.94
2023-01-04T16:32:16.215Z,100427.41
2023-01-04T16:34:45.332Z,100417.06
2023-01-04T16:37:14.095Z,100400.19
2023-01-04T16:40:05.791Z,100401.09
2023-01-04T16:42:31.670Z,100405.31
2023-01-04T16:45:00.384Z,100398.56
2023-01-04T16:47:30.621Z,100396.81
2023-01-04T16:49:59.622Z,100390.13
2023-01-04T16:52:30.115Z,100390.13
2023-01-04T16:54:58.916Z,100374.94
2023-01-04T16:57:28.231Z,100364.63
2023-01-04T16:59:57.096Z,100359.56
2023-01-04T17:02:25.974Z,100345.81
2023-01-04T17:04:59.884Z,100353.50
2023-01-04T17:07:33.417Z,100344.19
2023-01-04T17:10:02.392Z,100337.31
2023-01-04T17:12:48.529Z,100333.88
2023-01-04T17:18:08.188Z,100327.03
2023-01-04T17:20:40.806Z,100324.38
2023-01-04T17:23:09.894Z,100332.00
2023-01-04T17:25:38.700Z,100320.97
2023-01-04T17:28:07.541Z,100320.03
2023-01-04T17:30:39.270Z,100320.09
2023-01-04T17:33:08.076Z,100295.31
2023-01-04T17:35:39.547Z,100328.56
2023-01-04T17:38:08.764Z,100319.22
2023-01-04T17:40:37.521Z,100312.44
2023-01-04T17:43:06.263Z,100289.84
2023-01-04T17:45:35.042Z,100282.34
2023-01-04T17:48:03.975Z,100280.63
2023-01-04T17:50:32.796Z,100283.13
2023-01-04T17:53:03.013Z,100284.69
2023-01-04T17:55:31.788Z,100293.19
2023-01-04T17:58:02.352Z,100278.06
2023-01-04T18:00:33.445Z,100271.34
2023-01-04T18:03:02.237Z,100272.16
2023-01-04T18:05:39.447Z,100261.28
2023-01-04T18:08:21.444Z,100248.69
2023-01-04T18:11:06.588Z,100252.78
2023-01-04T18:16:24.535Z,100247.81
2023-01-04T18:18:54.392Z,100262.19
2023-01-04T18:21:28.815Z,100256.31
2023-01-04T18:29:40.847Z,100243.69
2023-01-04T18:32:09.631Z,100230.22
2023-01-04T18:34:38.456Z,100237.84
2023-01-04T18:37:10.206Z,100230.31
2023-01-04T18:39:40.477Z,100217.69
2023-01-04T18:42:09.504Z,100214.34
2023-01-04T18:44:43.899Z,100197.44
2023-01-04T18:47:17.196Z,100199.06
2023-01-04T18:49:45.850Z,100194.81
2023-01-04T18:52:15.098Z,100188.94
2023-01-04T18:54:45.253Z,100194.00
2023-01-04T18:57:14.021Z,100179.69
2023-01-04T18:59:42.754Z,100173.84
2023-01-04T19:02:17.543Z,100170.41
2023-01-04T19:04:46.740Z,100170.47
2023-01-04T19:07:15.505Z,100178.91
2023-01-04T19:09:45.736Z,100172.16
2023-01-04T19:12:14.485Z,100164.53
2023-01-04T19:14:43.631Z,100154.44
2023-01-04T19:17:12.819Z,100146.03
2023-01-04T19:19:41.645Z,100150.22
2023-01-04T19:22:10.426Z,100146.91
2023-01-04T19:24:39.875Z,100147.69
2023-01-04T19:27:12.273Z,100145.16
2023-01-04T19:29:41.670Z,100145.16
2023-01-04T19:32:10.434Z,100143.53
2023-01-04T19:34:39.256Z,100128.44
2023-01-04T19:37:08.055Z,100120.03
2023-01-04T19:39:36.783Z,100127.69
2023-01-04T19:42:05.673Z,100130.28
2023-01-04T19:44:36.986Z,100132.03
2023-01-04T19:47:05.914Z,100130.38
2023-01-04T19:49:34.656Z,100135.53
2023-01-04T19:52:03.574Z,100127.09
2023-01-04T19:54:32.244Z,100126.31
2023-01-04T19:57:01.062Z,100121.31
2023-01-04T19:59:29.803Z,100129.75
2023-01-04T20:02:00.119Z,100115.31
2023-01-04T20:04:29.045Z,100121.31
2023-01-04T20:06:57.851Z,100117.94
2023-01-04T20:09:27.795Z,100113.72
2023-01-04T20:11:56.503Z,100098.44
2023-01-04T20:14:25.516Z,100092.50
2023-01-04T20:16:54.323Z,100083.25
2023-01-04T20:19:24.667Z,100075.66
2023-01-04T20:21:53.561Z,100079.09
2023-01-04T20:24:22.305Z,100075.00
2023-01-04T20:26:51.214Z,100069.94
2023-01-04T20:29:20.040Z,100070.06
2023-01-04T20:31:49.168Z,100079.50
2023-01-04T20:34:17.954Z,100073.75
2023-01-04T20:36:48.252Z,100063.72
2023-01-04T20:39:17.021Z,100056.19
2023-01-04T20:41:59.669Z,100057.16
2023-01-04T20:44:28.585Z,100048.72
2023-01-04T20:46:57.316Z,100048.69
2023-01-04T20:49:26.175Z,100044.41
2023-01-04T20:51:56.324Z,100040.19
2023-01-04T20:54:25.268Z,100043.53
2023-01-04T20:56:53.977Z,100022.38
2023-01-04T20:59:22.751Z,100009.63
2023-01-04T21:01:51.601Z,100006.28
2023-01-04T21:04:20.884Z,100002.06
2023-01-04T21:06:49.559Z,99987.72
2023-01-04T21:09:19.677Z,99992.72
2023-01-04T21:11:48.886Z,99999.44
2023-01-04T21:14:18.135Z,99982.34
2023-01-04T21:16:46.885Z,100006.22
2023-01-04T21:19:16.421Z,100009.56
2023-01-04T21:21:45.187Z,100007.09
2023-01-04T21:24:14.042Z,100014.69
2023-01-04T21:26:44.227Z,100016.44
2023-01-04T21:29:13.026Z,100023.19
2023-01-04T21:31:41.789Z,100015.59
2023-01-04T21:34:14.259Z,100020.72
2023-01-04T21:36:45.155Z,100008.88
2023-01-04T21:39:13.873Z,100008.94
2023-01-04T21:41:47.904Z,100014.84
2023-01-04T21:44:17.383Z,100002.13
2023-01-04T21:46:46.223Z,100008.06
2023-01-04T21:49:15.002Z,100004.72
2023-01-04T21:51:43.783Z,100006.41
2023-01-04T21:54:12.617Z,100013.13
2023-01-04T21:56:41.338Z,100011.47
2023-01-04T21:59:11.896Z,100018.19
2023-01-04T22:01:40.797Z,100018.19
2023-01-04T22:04:09.866Z,100014.84
2023-01-04T22:06:40.639Z,100012.31
2023-01-04T22:09:09.544Z,99994.59
2023-01-04T22:11:38.288Z,99986.06
2023-01-04T22:14:07.074Z,99974.34
2023-01-04T22:16:37.240Z,99984.50
2023-01-04T22:19:06.076Z,99986.13
2023-01-04T22:21:34.845Z,99981.06
2023-01-04T22:24:03.663Z,99970.94
2023-01-04T22:26:32.390Z,99959.09
2023-01-04T22:29:01.381Z,99954.03
2023-01-04T22:31:30.270Z,99942.19
2023-01-04T22:34:00.973Z,99933.63
2023-01-04T22:36:29.695Z,99933.63
2023-01-04T22:38:59.228Z,99933.69
2023-01-04T22:41:28.585Z,99925.22
2023-01-04T22:43:58.315Z,99920.97
2023-01-04T22:46:28.959Z,99926.09
2023-01-04T22:49:00.725Z,99910.06
2023-01-04T22:51:31.343Z,99909.34
2023-01-04T22:54:02.808Z,99904.41
2023-01-04T22:56:31.632Z,99890.16
2023-01-04T22:59:00.538Z,99887.00
2023-01-04T23:01:31.994Z,99878.69
2023-01-04T23:04:03.957Z,99878.75
2023-01-04T23:06:33.640Z,99873.78
2023-01-04T23:09:04.667Z,99861.91
2023-01-04T23:11:35.145Z,99858.63
2023-01-04T23:14:05.043Z,99860.31
2023-01-04T23:16:34.113Z,99842.59
2023-01-04T23:19:05.631Z,99836.72
2023-01-04T23:21:35.556Z,99835.06
2023-01-04T23:24:04.970Z,99831.75
2023-01-04T23:26:34.661Z,99833.41
2023-01-04T23:29:03.802Z,99832.56
2023-01-04T23:31:33.905Z,99839.41
2023-01-04T23:34:06.088Z,99842.88
2023-01-04T23:36:36.668Z,99842.09
2023-01-04T23:39:08.496Z,99843.81
2023-01-04T23:41:47.433Z,99844.69
2023-01-04T23:46:54.611Z,99836.22
2023-01-04T23:49:26.152Z,99833.63
2023-01-04T23:51:55.476Z,99842.91
2023-01-04T23:54:24.557Z,99839.50
2023-01-04T23:56:54.995Z,99836.16
2023-01-04T23:59:25.829Z,99821.75
